sensor_id;sensor_type;location;lat;lon;timestamp;temperature;humidity
9167;DHT22;4618;48.818;9.088;2022-10-26T00:00:40;11.50;1.00
9167;DHT22;4618;48.818;9.088;2022-10-26T00:03:05;11.50;1.00
9167;DHT22;4618;48.818;9.088;2022-10-26T00:05:34;11.60;1.00
9167;DHT22;4618;48.818;9.088;2022-10-26T00:08:00;11.50;1.00
9167;DHT22;4618;48.818;9.088;2022-10-26T00:10:26;11.50;1.00
9167;DHT22;4618;48.818;9.088;2022-10-26T00:12:51;11.50;12.60
9167;DHT22;4618;48.818;9.088;2022-10-26T00:15:18;11.50;61.60
9167;DHT22;4618;48.818;9.088;2022-10-26T00:17:44;11.60;74.20
9167;DHT22;4618;48.818;9.088;2022-10-26T00:20:11;11.70;63.20
9167;DHT22;4618;48.818;9.088;2022-10-26T00:22:37;11.60;1.00
9167;DHT22;4618;48.818;9.088;2022-10-26T00:25:03;11.60;1.00
9167;DHT22;4618;48.818;9.088;2022-10-26T00:27:28;11.80;1.00
9167;DHT22;4618;48.818;9.088;2022-10-26T00:29:54;11.70;1.00
9167;DHT22;4618;48.818;9.088;2022-10-26T00:32:19;11.70;1.00
9167;DHT22;4618;48.818;9.088;2022-10-26T00:34:45;11.80;1.00
9167;DHT22;4618;48.818;9.088;2022-10-26T00:37:10;11.60;1.00
9167;DHT22;4618;48.818;9.088;2022-10-26T00:39:36;11.70;1.00
9167;DHT22;4618;48.818;9.088;2022-10-26T00:42:02;11.70;1.00
9167;DHT22;4618;48.818;9.088;2022-10-26T00:45:19;11.70;1.00
9167;DHT22;4618;48.818;9.088;2022-10-26T00:47:49;11.80;1.00
9167;DHT22;4618;48.818;9.088;2022-10-26T00:50:21;11.80;1.00
9167;DHT22;4618;48.818;9.088;2022-10-26T00:52:50;11.90;1.00
9167;DHT22;4618;48.818;9.088;2022-10-26T00:55:18;11.90;1.00
9167;DHT22;4618;48.818;9.088;2022-10-26T00:57:47;11.90;1.00
9167;DHT22;4618;48.818;9.088;2022-10-26T01:00:14;12.00;1.00
9167;DHT22;4618;48.818;9.088;2022-10-26T01:02:39;12.00;1.00
9167;DHT22;4618;48.818;9.088;2022-10-26T01:05:06;12.10;1.00
9167;DHT22;4618;48.818;9.088;2022-10-26T01:07:32;12.00;99.90
9167;DHT22;4618;48.818;9.088;2022-10-26T01:09:58;12.10;99.90
9167;DHT22;4618;48.818;9.088;2022-10-26T01:12:25;12.10;99.90
9167;DHT22;4618;48.818;9.088;2022-10-26T01:14:50;12.20;65.00
9167;DHT22;4618;48.818;9.088;2022-10-26T01:20:43;12.10;1.00
9167;DHT22;4618;48.818;9.088;2022-10-26T01:23:29;12.10;99.90
9167;DHT22;4618;48.818;9.088;2022-10-26T01:31:14;12.00;99.90
9167;DHT22;4618;48.818;9.088;2022-10-26T01:34:07;12.10;99.90
9167;DHT22;4618;48.818;9.088;2022-10-26T01:36:45;12.20;16.90
9167;DHT22;4618;48.818;9.088;2022-10-26T01:39:19;12.10;1.00
9167;DHT22;4618;48.818;9.088;2022-10-26T01:41:49;12.10;1.00
9167;DHT22;4618;48.818;9.088;2022-10-26T01:44:24;12.10;1.00
9167;DHT22;4618;48.818;9.088;2022-10-26T01:46:52;12.10;1.00
9167;DHT22;4618;48.818;9.088;2022-10-26T01:49:34;12.10;1.00
9167;DHT22;4618;48.818;9.088;2022-10-26T01:51:59;12.10;1.00
9167;DHT22;4618;48.818;9.088;2022-10-26T01:54:25;12.00;99.90
9167;DHT22;4618;48.818;9.088;2022-10-26T01:56:56;12.00;99.90
9167;DHT22;4618;48.818;9.088;2022-10-26T02:05:33;11.80;1.00
9167;DHT22;4618;48.818;9.088;2022-10-26T02:11:29;11.70;95.70
9167;DHT22;4618;48.818;9.088;2022-10-26T02:16:37;11.70;87.70
9167;DHT22;4618;48.818;9.088;2022-10-26T02:24:35;11.50;99.90
9167;DHT22;4618;48.818;9.088;2022-10-26T02:27:05;11.40;99.90
9167;DHT22;4618;48.818;9.088;2022-10-26T02:29:32;11.50;99.90
9167;DHT22;4618;48.818;9.088;2022-10-26T02:31:59;11.50;99.90
9167;DHT22;4618;48.818;9.088;2022-10-26T02:34:27;11.50;99.90
9167;DHT22;4618;48.818;9.088;2022-10-26T02:36:56;11.60;99.90
9167;DHT22;4618;48.818;9.088;2022-10-26T02:39:22;11.70;99.90
9167;DHT22;4618;48.818;9.088;2022-10-26T02:41:49;11.80;99.90
9167;DHT22;4618;48.818;9.088;2022-10-26T02:44:25;11.80;99.90
9167;DHT22;4618;48.818;9.088;2022-10-26T02:46:52;11.80;99.90
9167;DHT22;4618;48.818;9.088;2022-10-26T02:49:19;11.70;99.90
9167;DHT22;4618;48.818;9.088;2022-10-26T02:54:35;11.70;99.90
9167;DHT22;4618;48.818;9.088;2022-10-26T02:57:14;11.70;99.90
9167;DHT22;4618;48.818;9.088;2022-10-26T02:59:44;11.70;99.90
9167;DHT22;4618;48.818;9.088;2022-10-26T03:02:15;11.70;99.90
9167;DHT22;4618;48.818;9.088;2022-10-26T03:04:42;11.70;99.90
9167;DHT22;4618;48.818;9.088;2022-10-26T03:07:07;11.60;99.90
9167;DHT22;4618;48.818;9.088;2022-10-26T03:09:33;11.50;99.90
9167;DHT22;4618;48.818;9.088;2022-10-26T03:11:59;11.60;99.90
9167;DHT22;4618;48.818;9.088;2022-10-26T03:14:24;11.70;99.90
9167;DHT22;4618;48.818;9.088;2022-10-26T03:16:50;11.80;99.90
9167;DHT22;4618;48.818;9.088;2022-10-26T03:19:15;11.70;99.90
9167;DHT22;4618;48.818;9.088;2022-10-26T03:21:41;11.80;99.90
9167;DHT22;4618;48.818;9.088;2022-10-26T03:24:07;11.80;99.90
9167;DHT22;4618;48.818;9.088;2022-10-26T03:26:33;11.80;99.90
9167;DHT22;4618;48.818;9.088;2022-10-26T03:28:59;11.80;99.90
9167;DHT22;4618;48.818;9.088;2022-10-26T03:31:24;11.90;99.90
9167;DHT22;4618;48.818;9.088;2022-10-26T03:33:50;11.90;99.90
9167;DHT22;4618;48.818;9.088;2022-10-26T03:36:16;12.00;99.90
9167;DHT22;4618;48.818;9.088;2022-10-26T03:38:41;12.10;24.20
9167;DHT22;4618;48.818;9.088;2022-10-26T03:41:07;12.30;9.60
9167;DHT22;4618;48.818;9.088;2022-10-26T03:43:32;12.20;1.00
9167;DHT22;4618;48.818;9.088;2022-10-26T03:45:58;12.30;1.00
9167;DHT22;4618;48.818;9.088;2022-10-26T03:48:23;12.20;1.00
9167;DHT22;4618;48.818;9.088;2022-10-26T03:50:49;12.30;99.90
9167;DHT22;4618;48.818;9.088;2022-10-26T03:53:14;12.30;99.90
9167;DHT22;4618;48.818;9.088;2022-10-26T03:55:43;12.30;1.00
9167;DHT22;4618;48.818;9.088;2022-10-26T03:58:09;12.10;1.00
9167;DHT22;4618;48.818;9.088;2022-10-26T04:00:34;12.10;1.00
9167;DHT22;4618;48.818;9.088;2022-10-26T04:03:00;12.00;1.00
9167;DHT22;4618;48.818;9.088;2022-10-26T04:05:27;12.00;1.00
9167;DHT22;4618;48.818;9.088;2022-10-26T04:07:57;12.00;1.00
9167;DHT22;4618;48.818;9.088;2022-10-26T04:10:25;11.90;1.00
9167;DHT22;4618;48.818;9.088;2022-10-26T04:12:51;11.90;1.00
9167;DHT22;4618;48.818;9.088;2022-10-26T04:15:17;11.90;1.00
9167;DHT22;4618;48.818;9.088;2022-10-26T04:17:43;11.90;13.80
9167;DHT22;4618;48.818;9.088;2022-10-26T04:20:10;12.00;55.90
9167;DHT22;4618;48.818;9.088;2022-10-26T04:22:36;12.10;1.00
9167;DHT22;4618;48.818;9.088;2022-10-26T04:25:03;12.10;1.00
9167;DHT22;4618;48.818;9.088;2022-10-26T04:27:28;12.20;1.00
9167;DHT22;4618;48.818;9.088;2022-10-26T04:29:54;12.20;1.00
9167;DHT22;4618;48.818;9.088;2022-10-26T04:32:19;12.20;1.00
9167;DHT22;4618;48.818;9.088;2022-10-26T04:34:45;12.20;1.00
9167;DHT22;4618;48.818;9.088;2022-10-26T04:37:10;12.30;1.00
9167;DHT22;4618;48.818;9.088;2022-10-26T04:39:36;12.40;1.00
9167;DHT22;4618;48.818;9.088;2022-10-26T04:42:02;12.30;1.00
9167;DHT22;4618;48.818;9.088;2022-10-26T04:44:27;12.30;1.00
9167;DHT22;4618;48.818;9.088;2022-10-26T04:46:53;12.40;1.00
9167;DHT22;4618;48.818;9.088;2022-10-26T04:49:19;12.50;99.90
9167;DHT22;4618;48.818;9.088;2022-10-26T04:51:45;12.70;99.90
9167;DHT22;4618;48.818;9.088;2022-10-26T04:54:10;12.70;99.90
9167;DHT22;4618;48.818;9.088;2022-10-26T04:56:36;12.80;99.90
9167;DHT22;4618;48.818;9.088;2022-10-26T04:59:01;12.70;42.20
9167;DHT22;4618;48.818;9.088;2022-10-26T05:01:27;12.80;1.00
9167;DHT22;4618;48.818;9.088;2022-10-26T05:03:53;12.90;99.90
9167;DHT22;4618;48.818;9.088;2022-10-26T05:06:19;13.10;60.80
9167;DHT22;4618;48.818;9.088;2022-10-26T05:08:45;13.10;1.00
9167;DHT22;4618;48.818;9.088;2022-10-26T05:11:11;13.50;1.00
9167;DHT22;4618;48.818;9.088;2022-10-26T05:13:37;13.70;99.90
9167;DHT22;4618;48.818;9.088;2022-10-26T05:16:02;13.80;34.40
9167;DHT22;4618;48.818;9.088;2022-10-26T05:18:28;13.90;1.00
9167;DHT22;4618;48.818;9.088;2022-10-26T05:20:54;13.90;1.00
9167;DHT22;4618;48.818;9.088;2022-10-26T05:23:20;14.00;1.00
9167;DHT22;4618;48.818;9.088;2022-10-26T05:25:45;14.10;99.90
9167;DHT22;4618;48.818;9.088;2022-10-26T05:28:12;14.10;99.90
9167;DHT22;4618;48.818;9.088;2022-10-26T05:30:42;14.10;99.90
9167;DHT22;4618;48.818;9.088;2022-10-26T05:33:09;14.00;99.90
9167;DHT22;4618;48.818;9.088;2022-10-26T05:35:35;14.20;1.00
9167;DHT22;4618;48.818;9.088;2022-10-26T05:38:14;14.40;99.90
9167;DHT22;4618;48.818;9.088;2022-10-26T05:40:50;14.50;99.90
9167;DHT22;4618;48.818;9.088;2022-10-26T05:43:16;14.50;99.90
9167;DHT22;4618;48.818;9.088;2022-10-26T05:45:42;14.60;99.90
9167;DHT22;4618;48.818;9.088;2022-10-26T05:48:08;14.60;99.90
9167;DHT22;4618;48.818;9.088;2022-10-26T05:50:34;14.60;99.90
9167;DHT22;4618;48.818;9.088;2022-10-26T05:53:00;14.60;99.90
9167;DHT22;4618;48.818;9.088;2022-10-26T05:55:26;14.50;99.90
9167;DHT22;4618;48.818;9.088;2022-10-26T05:57:51;14.50;99.90
9167;DHT22;4618;48.818;9.088;2022-10-26T06:00:22;14.50;99.90
9167;DHT22;4618;48.818;9.088;2022-10-26T06:05:28;14.80;1.00
9167;DHT22;4618;48.818;9.088;2022-10-26T06:07:55;14.70;1.00
9167;DHT22;4618;48.818;9.088;2022-10-26T06:10:21;14.70;21.40
9167;DHT22;4618;48.818;9.088;2022-10-26T06:12:46;14.70;63.90
9167;DHT22;4618;48.818;9.088;2022-10-26T06:15:17;14.70;1.00
9167;DHT22;4618;48.818;9.088;2022-10-26T06:20:26;14.70;23.60
9167;DHT22;4618;48.818;9.088;2022-10-26T06:30:47;14.50;99.90
9167;DHT22;4618;48.818;9.088;2022-10-26T06:33:13;14.60;99.90
9167;DHT22;4618;48.818;9.088;2022-10-26T06:38:14;14.70;1.00
9167;DHT22;4618;48.818;9.088;2022-10-26T06:40:42;14.70;1.00
9167;DHT22;4618;48.818;9.088;2022-10-26T06:43:24;14.80;1.00
9167;DHT22;4618;48.818;9.088;2022-10-26T06:46:31;14.90;1.00
9167;DHT22;4618;48.818;9.088;2022-10-26T06:49:26;15.00;1.00
9167;DHT22;4618;48.818;9.088;2022-10-26T06:51:57;15.00;1.00
9167;DHT22;4618;48.818;9.088;2022-10-26T06:54:45;15.10;1.00
9167;DHT22;4618;48.818;9.088;2022-10-26T06:57:13;15.10;1.00
9167;DHT22;4618;48.818;9.088;2022-10-26T06:59:48;15.20;1.00
9167;DHT22;4618;48.818;9.088;2022-10-26T07:02:15;15.20;1.00
9167;DHT22;4618;48.818;9.088;2022-10-26T07:04:41;15.30;1.00
9167;DHT22;4618;48.818;9.088;2022-10-26T07:07:16;15.30;1.00
9167;DHT22;4618;48.818;9.088;2022-10-26T07:09:42;15.20;1.00
9167;DHT22;4618;48.818;9.088;2022-10-26T07:12:08;15.20;1.00
9167;DHT22;4618;48.818;9.088;2022-10-26T07:14:33;15.20;1.00
9167;DHT22;4618;48.818;9.088;2022-10-26T07:16:59;15.20;1.00
9167;DHT22;4618;48.818;9.088;2022-10-26T07:19:25;15.10;20.20
9167;DHT22;4618;48.818;9.088;2022-10-26T07:21:53;15.20;1.00
9167;DHT22;4618;48.818;9.088;2022-10-26T07:24:18;15.30;1.00
9167;DHT22;4618;48.818;9.088;2022-10-26T07:26:44;15.30;1.00
9167;DHT22;4618;48.818;9.088;2022-10-26T07:29:09;15.40;1.00
9167;DHT22;4618;48.818;9.088;2022-10-26T07:31:35;15.40;1.00
9167;DHT22;4618;48.818;9.088;2022-10-26T07:34:01;15.50;99.90
9167;DHT22;4618;48.818;9.088;2022-10-26T07:36:28;15.40;1.00
9167;DHT22;4618;48.818;9.088;2022-10-26T07:38:53;15.40;1.00
9167;DHT22;4618;48.818;9.088;2022-10-26T07:41:19;15.40;1.00
9167;DHT22;4618;48.818;9.088;2022-10-26T07:43:45;15.40;1.00
9167;DHT22;4618;48.818;9.088;2022-10-26T07:46:11;15.40;1.00
9167;DHT22;4618;48.818;9.088;2022-10-26T07:48:37;15.40;1.00
9167;DHT22;4618;48.818;9.088;2022-10-26T07:51:04;15.50;1.00
9167;DHT22;4618;48.818;9.088;2022-10-26T07:53:32;15.30;99.90
9167;DHT22;4618;48.818;9.088;2022-10-26T07:55:58;15.10;1.00
9167;DHT22;4618;48.818;9.088;2022-10-26T07:58:23;15.00;1.00
9167;DHT22;4618;48.818;9.088;2022-10-26T08:00:54;15.00;1.00
9167;DHT22;4618;48.818;9.088;2022-10-26T08:03:20;15.10;1.00
9167;DHT22;4618;48.818;9.088;2022-10-26T08:05:47;15.30;99.90
9167;DHT22;4618;48.818;9.088;2022-10-26T08:08:16;15.40;1.00
9167;DHT22;4618;48.818;9.088;2022-10-26T08:10:43;15.60;1.00
9167;DHT22;4618;48.818;9.088;2022-10-26T08:13:09;15.60;1.00
9167;DHT22;4618;48.818;9.088;2022-10-26T08:15:34;15.80;1.00
9167;DHT22;4618;48.818;9.088;2022-10-26T08:18:00;15.80;99.90
9167;DHT22;4618;48.818;9.088;2022-10-26T08:20:26;15.90;99.90
9167;DHT22;4618;48.818;9.088;2022-10-26T08:22:51;15.90;99.90
9167;DHT22;4618;48.818;9.088;2022-10-26T08:25:17;16.00;99.90
9167;DHT22;4618;48.818;9.088;2022-10-26T08:27:43;16.00;99.90
9167;DHT22;4618;48.818;9.088;2022-10-26T08:30:09;16.00;99.90
9167;DHT22;4618;48.818;9.088;2022-10-26T08:32:34;16.00;99.90
9167;DHT22;4618;48.818;9.088;2022-10-26T08:35:00;16.10;99.90
9167;DHT22;4618;48.818;9.088;2022-10-26T08:37:26;16.10;99.90
9167;DHT22;4618;48.818;9.088;2022-10-26T08:39:51;16.10;99.90
9167;DHT22;4618;48.818;9.088;2022-10-26T08:42:41;16.10;99.90
9167;DHT22;4618;48.818;9.088;2022-10-26T08:45:21;16.30;1.00
9167;DHT22;4618;48.818;9.088;2022-10-26T08:47:52;16.30;1.00
9167;DHT22;4618;48.818;9.088;2022-10-26T08:50:35;16.40;1.00
9167;DHT22;4618;48.818;9.088;2022-10-26T08:55:46;16.80;99.90
9167;DHT22;4618;48.818;9.088;2022-10-26T08:58:15;17.10;99.90
9167;DHT22;4618;48.818;9.088;2022-10-26T09:00:41;17.30;15.30
9167;DHT22;4618;48.818;9.088;2022-10-26T09:03:12;17.50;1.00
9167;DHT22;4618;48.818;9.088;2022-10-26T09:08:20;17.80;1.00
9167;DHT22;4618;48.818;9.088;2022-10-26T09:17:00;18.60;1.00
9167;DHT22;4618;48.818;9.088;2022-10-26T09:19:54;19.40;1.00
9167;DHT22;4618;48.818;9.088;2022-10-26T09:24:55;19.80;99.90
9167;DHT22;4618;48.818;9.088;2022-10-26T09:27:29;20.20;99.90
9167;DHT22;4618;48.818;9.088;2022-10-26T09:29:58;19.70;99.90
9167;DHT22;4618;48.818;9.088;2022-10-26T09:32:37;19.30;1.00
9167;DHT22;4618;48.818;9.088;2022-10-26T09:35:19;19.00;1.00
9167;DHT22;4618;48.818;9.088;2022-10-26T09:38:05;19.20;1.00
9167;DHT22;4618;48.818;9.088;2022-10-26T09:41:35;20.30;10.30
9167;DHT22;4618;48.818;9.088;2022-10-26T09:44:07;21.60;1.00
9167;DHT22;4618;48.818;9.088;2022-10-26T09:46:52;22.00;1.00
9167;DHT22;4618;48.818;9.088;2022-10-26T09:49:22;21.10;1.00
9167;DHT22;4618;48.818;9.088;2022-10-26T09:51:54;20.40;1.00
9167;DHT22;4618;48.818;9.088;2022-10-26T09:54:20;20.30;1.00
9167;DHT22;4618;48.818;9.088;2022-10-26T09:56:52;20.10;1.00
9167;DHT22;4618;48.818;9.088;2022-10-26T09:59:21;20.00;1.00
9167;DHT22;4618;48.818;9.088;2022-10-26T10:01:47;19.70;46.70
9167;DHT22;4618;48.818;9.088;2022-10-26T10:06:42;19.30;99.90
9167;DHT22;4618;48.818;9.088;2022-10-26T10:09:13;19.20;99.90
9167;DHT22;4618;48.818;9.088;2022-10-26T10:11:54;19.20;99.90
9167;DHT22;4618;48.818;9.088;2022-10-26T10:14:29;19.40;99.90
9167;DHT22;4618;48.818;9.088;2022-10-26T10:17:01;19.40;99.90
9167;DHT22;4618;48.818;9.088;2022-10-26T10:19:32;19.60;99.90
9167;DHT22;4618;48.818;9.088;2022-10-26T10:22:00;20.30;1.00
9167;DHT22;4618;48.818;9.088;2022-10-26T10:24:29;21.20;99.90
9167;DHT22;4618;48.818;9.088;2022-10-26T10:29:26;22.80;1.00
9167;DHT22;4618;48.818;9.088;2022-10-26T10:31:57;23.70;1.00
9167;DHT22;4618;48.818;9.088;2022-10-26T10:34:23;24.60;1.00
9167;DHT22;4618;48.818;9.088;2022-10-26T10:36:49;23.50;1.00
9167;DHT22;4618;48.818;9.088;2022-10-26T10:39:37;22.60;1.00
9167;DHT22;4618;48.818;9.088;2022-10-26T10:42:13;22.20;1.00
9167;DHT22;4618;48.818;9.088;2022-10-26T10:44:39;22.30;1.00
9167;DHT22;4618;48.818;9.088;2022-10-26T10:47:24;22.20;1.00
9167;DHT22;4618;48.818;9.088;2022-10-26T10:49:55;22.00;1.00
9167;DHT22;4618;48.818;9.088;2022-10-26T10:52:35;21.80;1.00
9167;DHT22;4618;48.818;9.088;2022-10-26T10:55:26;21.40;1.00
9167;DHT22;4618;48.818;9.088;2022-10-26T10:58:05;21.10;1.00
9167;DHT22;4618;48.818;9.088;2022-10-26T11:00:36;22.60;1.00
9167;DHT22;4618;48.818;9.088;2022-10-26T11:08:20;25.40;99.90
9167;DHT22;4618;48.818;9.088;2022-10-26T11:11:03;25.20;99.90
9167;DHT22;4618;48.818;9.088;2022-10-26T11:13:41;23.40;99.90
9167;DHT22;4618;48.818;9.088;2022-10-26T11:16:14;22.50;1.00
9167;DHT22;4618;48.818;9.088;2022-10-26T11:18:47;22.00;1.00
9167;DHT22;4618;48.818;9.088;2022-10-26T11:21:29;21.80;1.00
9167;DHT22;4618;48.818;9.088;2022-10-26T11:24:27;21.80;1.00
9167;DHT22;4618;48.818;9.088;2022-10-26T11:32:28;23.20;1.00
9167;DHT22;4618;48.818;9.088;2022-10-26T11:35:03;23.40;1.00
9167;DHT22;4618;48.818;9.088;2022-10-26T11:37:35;23.30;1.00
9167;DHT22;4618;48.818;9.088;2022-10-26T11:43:17;23.20;1.00
9167;DHT22;4618;48.818;9.088;2022-10-26T11:45:49;23.00;1.00
9167;DHT22;4618;48.818;9.088;2022-10-26T11:48:27;22.90;1.00
9167;DHT22;4618;48.818;9.088;2022-10-26T11:50:56;22.60;1.00
9167;DHT22;4618;48.818;9.088;2022-10-26T11:53:30;22.70;1.00
9167;DHT22;4618;48.818;9.088;2022-10-26T11:56:01;22.70;1.00
9167;DHT22;4618;48.818;9.088;2022-10-26T11:58:28;22.80;1.00
9167;DHT22;4618;48.818;9.088;2022-10-26T12:01:03;22.80;1.00
9167;DHT22;4618;48.818;9.088;2022-10-26T12:03:35;22.70;1.00
9167;DHT22;4618;48.818;9.088;2022-10-26T12:06:01;22.50;1.00
9167;DHT22;4618;48.818;9.088;2022-10-26T12:08:32;22.40;1.00
9167;DHT22;4618;48.818;9.088;2022-10-26T12:11:19;22.40;1.00
9167;DHT22;4618;48.818;9.088;2022-10-26T12:13:56;22.40;1.00
9167;DHT22;4618;48.818;9.088;2022-10-26T12:19:46;22.90;1.00
9167;DHT22;4618;48.818;9.088;2022-10-26T12:22:16;23.80;1.00
9167;DHT22;4618;48.818;9.088;2022-10-26T12:24:43;24.30;1.00
9167;DHT22;4618;48.818;9.088;2022-10-26T12:27:30;24.20;99.90
9167;DHT22;4618;48.818;9.088;2022-10-26T12:30:30;24.00;99.90
9167;DHT22;4618;48.818;9.088;2022-10-26T12:32:59;24.10;99.90
9167;DHT22;4618;48.818;9.088;2022-10-26T12:37:55;23.70;99.90
9167;DHT22;4618;48.818;9.088;2022-10-26T12:42:55;24.20;99.90
9167;DHT22;4618;48.818;9.088;2022-10-26T12:45:21;24.50;99.90
9167;DHT22;4618;48.818;9.088;2022-10-26T12:52:48;28.10;99.90
9167;DHT22;4618;48.818;9.088;2022-10-26T12:55:26;29.10;99.90
9167;DHT22;4618;48.818;9.088;2022-10-26T13:00:34;28.30;99.90
9167;DHT22;4618;48.818;9.088;2022-10-26T13:03:20;29.30;99.90
9167;DHT22;4618;48.818;9.088;2022-10-26T13:08:53;30.00;99.90
9167;DHT22;4618;48.818;9.088;2022-10-26T13:11:35;29.10;99.90
9167;DHT22;4618;48.818;9.088;2022-10-26T13:14:15;28.20;99.90
9167;DHT22;4618;48.818;9.088;2022-10-26T13:16:44;27.40;99.90
9167;DHT22;4618;48.818;9.088;2022-10-26T13:19:31;27.00;99.90
9167;DHT22;4618;48.818;9.088;2022-10-26T13:21:58;27.00;99.90
9167;DHT22;4618;48.818;9.088;2022-10-26T13:24:26;27.60;99.90
9167;DHT22;4618;48.818;9.088;2022-10-26T13:29:31;27.10;99.90
9167;DHT22;4618;48.818;9.088;2022-10-26T13:31:58;26.80;99.90
9167;DHT22;4618;48.818;9.088;2022-10-26T13:34:29;27.00;99.90
9167;DHT22;4618;48.818;9.088;2022-10-26T13:39:45;27.60;99.90
9167;DHT22;4618;48.818;9.088;2022-10-26T13:42:17;27.70;99.90
9167;DHT22;4618;48.818;9.088;2022-10-26T13:44:58;28.00;99.90
9167;DHT22;4618;48.818;9.088;2022-10-26T13:50:34;27.60;99.90
9167;DHT22;4618;48.818;9.088;2022-10-26T13:53:28;27.70;99.90
9167;DHT22;4618;48.818;9.088;2022-10-26T13:58:47;27.30;99.90
9167;DHT22;4618;48.818;9.088;2022-10-26T14:01:16;27.40;99.90
9167;DHT22;4618;48.818;9.088;2022-10-26T14:03:43;27.20;99.90
9167;DHT22;4618;48.818;9.088;2022-10-26T14:08:40;27.20;99.90
9167;DHT22;4618;48.818;9.088;2022-10-26T14:11:11;26.50;99.90
9167;DHT22;4618;48.818;9.088;2022-10-26T14:13:37;25.70;99.90
9167;DHT22;4618;48.818;9.088;2022-10-26T14:16:07;25.40;99.90
9167;DHT22;4618;48.818;9.088;2022-10-26T14:18:34;25.70;99.90
9167;DHT22;4618;48.818;9.088;2022-10-26T14:21:05;26.00;99.90
9167;DHT22;4618;48.818;9.088;2022-10-26T14:26:29;27.20;99.90
9167;DHT22;4618;48.818;9.088;2022-10-26T14:28:58;27.90;99.90
9167;DHT22;4618;48.818;9.088;2022-10-26T14:31:31;28.30;99.90
9167;DHT22;4618;48.818;9.088;2022-10-26T14:33:58;28.90;99.90
9167;DHT22;4618;48.818;9.088;2022-10-26T14:36:31;29.30;99.90
9167;DHT22;4618;48.818;9.088;2022-10-26T14:39:00;29.30;99.90
9167;DHT22;4618;48.818;9.088;2022-10-26T14:41:28;29.10;99.90
9167;DHT22;4618;48.818;9.088;2022-10-26T14:43:55;28.70;99.90
9167;DHT22;4618;48.818;9.088;2022-10-26T14:46:22;29.40;99.90
9167;DHT22;4618;48.818;9.088;2022-10-26T14:48:55;29.60;99.90
9167;DHT22;4618;48.818;9.088;2022-10-26T14:51:34;28.90;99.90
9167;DHT22;4618;48.818;9.088;2022-10-26T14:54:01;29.00;99.90
9167;DHT22;4618;48.818;9.088;2022-10-26T14:58:54;28.90;99.90
9167;DHT22;4618;48.818;9.088;2022-10-26T15:03:58;28.60;99.90
9167;DHT22;4618;48.818;9.088;2022-10-26T15:08:57;28.30;99.90
9167;DHT22;4618;48.818;9.088;2022-10-26T15:11:25;27.90;99.90
9167;DHT22;4618;48.818;9.088;2022-10-26T15:13:50;27.10;99.90
9167;DHT22;4618;48.818;9.088;2022-10-26T15:16:19;26.70;99.90
9167;DHT22;4618;48.818;9.088;2022-10-26T15:18:48;25.90;99.90
9167;DHT22;4618;48.818;9.088;2022-10-26T15:21:25;25.40;99.90
9167;DHT22;4618;48.818;9.088;2022-10-26T15:23:52;24.80;99.90
9167;DHT22;4618;48.818;9.088;2022-10-26T15:26:19;24.40;99.90
9167;DHT22;4618;48.818;9.088;2022-10-26T15:28:45;24.00;99.90
9167;DHT22;4618;48.818;9.088;2022-10-26T15:33:41;23.80;99.90
9167;DHT22;4618;48.818;9.088;2022-10-26T15:36:23;23.80;99.90
9167;DHT22;4618;48.818;9.088;2022-10-26T15:38:49;23.70;99.90
9167;DHT22;4618;48.818;9.088;2022-10-26T15:41:16;23.40;99.90
9167;DHT22;4618;48.818;9.088;2022-10-26T15:43:46;23.20;99.90
9167;DHT22;4618;48.818;9.088;2022-10-26T15:46:12;22.70;99.90
9167;DHT22;4618;48.818;9.088;2022-10-26T15:48:38;22.00;99.90
9167;DHT22;4618;48.818;9.088;2022-10-26T15:51:05;21.50;99.90
9167;DHT22;4618;48.818;9.088;2022-10-26T15:53:31;21.00;99.90
9167;DHT22;4618;48.818;9.088;2022-10-26T15:55:58;20.60;1.00
9167;DHT22;4618;48.818;9.088;2022-10-26T15:58:26;20.20;1.00
9167;DHT22;4618;48.818;9.088;2022-10-26T16:00:51;20.00;1.00
9167;DHT22;4618;48.818;9.088;2022-10-26T16:03:22;19.80;96.20
9167;DHT22;4618;48.818;9.088;2022-10-26T16:05:51;19.50;99.90
9167;DHT22;4618;48.818;9.088;2022-10-26T16:08:18;19.20;99.90
9167;DHT22;4618;48.818;9.088;2022-10-26T16:10:44;18.90;1.00
9167;DHT22;4618;48.818;9.088;2022-10-26T16:13:11;18.70;1.00
9167;DHT22;4618;48.818;9.088;2022-10-26T16:15:38;18.40;26.20
9167;DHT22;4618;48.818;9.088;2022-10-26T16:18:04;18.10;99.90
9167;DHT22;4618;48.818;9.088;2022-10-26T16:20:29;17.90;1.00
9167;DHT22;4618;48.818;9.088;2022-10-26T16:22:55;17.90;99.90
9167;DHT22;4618;48.818;9.088;2022-10-26T16:25:22;17.90;99.90
9167;DHT22;4618;48.818;9.088;2022-10-26T16:27:49;17.70;1.00
9167;DHT22;4618;48.818;9.088;2022-10-26T16:30:16;17.50;1.00
9167;DHT22;4618;48.818;9.088;2022-10-26T16:32:42;17.30;18.90
9167;DHT22;4618;48.818;9.088;2022-10-26T16:35:08;17.10;99.90
9167;DHT22;4618;48.818;9.088;2022-10-26T16:37:35;17.10;99.90
9167;DHT22;4618;48.818;9.088;2022-10-26T16:40:00;17.00;99.90
9167;DHT22;4618;48.818;9.088;2022-10-26T16:42:26;16.90;1.00
9167;DHT22;4618;48.818;9.088;2022-10-26T16:44:53;16.70;1.00
9167;DHT22;4618;48.818;9.088;2022-10-26T16:47:18;16.60;1.00
9167;DHT22;4618;48.818;9.088;2022-10-26T16:49:44;16.40;1.00
9167;DHT22;4618;48.818;9.088;2022-10-26T16:52:10;16.40;29.00
9167;DHT22;4618;48.818;9.088;2022-10-26T16:54:36;16.20;99.90
9167;DHT22;4618;48.818;9.088;2022-10-26T16:57:02;16.30;99.90
9167;DHT22;4618;48.818;9.088;2022-10-26T16:59:27;16.10;99.90
9167;DHT22;4618;48.818;9.088;2022-10-26T17:01:53;15.90;1.00
9167;DHT22;4618;48.818;9.088;2022-10-26T17:04:19;15.60;99.90
9167;DHT22;4618;48.818;9.088;2022-10-26T17:06:44;15.50;1.00
9167;DHT22;4618;48.818;9.088;2022-10-26T17:09:10;15.20;99.90
9167;DHT22;4618;48.818;9.088;2022-10-26T17:11:35;15.20;99.90
9167;DHT22;4618;48.818;9.088;2022-10-26T17:14:01;15.20;1.00
9167;DHT22;4618;48.818;9.088;2022-10-26T17:16:26;15.10;1.00
9167;DHT22;4618;48.818;9.088;2022-10-26T17:18:53;15.20;1.00
9167;DHT22;4618;48.818;9.088;2022-10-26T17:21:26;15.30;29.90
9167;DHT22;4618;48.818;9.088;2022-10-26T17:23:52;15.40;1.00
9167;DHT22;4618;48.818;9.088;2022-10-26T17:26:18;15.40;1.00
9167;DHT22;4618;48.818;9.088;2022-10-26T17:28:43;15.40;99.90
9167;DHT22;4618;48.818;9.088;2022-10-26T17:31:12;15.50;99.90
9167;DHT22;4618;48.818;9.088;2022-10-26T17:33:39;15.50;99.90
9167;DHT22;4618;48.818;9.088;2022-10-26T17:36:07;15.50;99.90
9167;DHT22;4618;48.818;9.088;2022-10-26T17:38:35;15.50;99.90
9167;DHT22;4618;48.818;9.088;2022-10-26T17:41:02;15.40;99.90
9167;DHT22;4618;48.818;9.088;2022-10-26T17:43:32;15.50;99.90
9167;DHT22;4618;48.818;9.088;2022-10-26T17:45:59;15.30;99.90
9167;DHT22;4618;48.818;9.088;2022-10-26T17:48:25;15.10;1.00
9167;DHT22;4618;48.818;9.088;2022-10-26T17:50:52;14.90;99.90
9167;DHT22;4618;48.818;9.088;2022-10-26T17:53:17;14.70;1.00
9167;DHT22;4618;48.818;9.088;2022-10-26T17:55:43;14.40;1.00
9167;DHT22;4618;48.818;9.088;2022-10-26T17:58:08;14.30;99.90
9167;DHT22;4618;48.818;9.088;2022-10-26T18:00:34;14.30;1.00
9167;DHT22;4618;48.818;9.088;2022-10-26T18:02:59;14.40;1.00
9167;DHT22;4618;48.818;9.088;2022-10-26T18:05:25;14.30;1.00
9167;DHT22;4618;48.818;9.088;2022-10-26T18:07:51;14.20;99.50
9167;DHT22;4618;48.818;9.088;2022-10-26T18:10:16;14.00;99.90
9167;DHT22;4618;48.818;9.088;2022-10-26T18:12:42;14.00;99.90
9167;DHT22;4618;48.818;9.088;2022-10-26T18:15:07;14.10;1.00
9167;DHT22;4618;48.818;9.088;2022-10-26T18:17:33;14.10;1.00
9167;DHT22;4618;48.818;9.088;2022-10-26T18:19:58;14.30;1.00
9167;DHT22;4618;48.818;9.088;2022-10-26T18:22:24;14.30;1.00
9167;DHT22;4618;48.818;9.088;2022-10-26T18:24:49;14.30;99.90
9167;DHT22;4618;48.818;9.088;2022-10-26T18:27:15;14.20;1.00